createdAt,value
2023-01-19T00:01:47.472Z,100142.80
2023-01-19T00:04:17.182Z,100139.07
2023-01-19T00:06:47.107Z,100133.66
2023-01-19T00:09:16.898Z,100136.24
2023-01-19T00:11:46.686Z,100138.13
2023-01-19T00:14:16.747Z,100130.38
2023-01-19T00:16:46.621Z,100125.68
2023-01-19T00:19:16.819Z,100128.05
2023-01-19T00:21:46.626Z,100125.35
2023-01-19T00:24:16.232Z,100127.35
2023-01-19T00:26:46.085Z,100139.81
2023-01-19T00:29:16.092Z,100131.41
2023-01-19T00:31:46.185Z,100133.58
2023-01-19T00:34:16.450Z,100135.27
2023-01-19T00:36:46.256Z,100134.26
2023-01-19T00:39:16.054Z,100122.16
2023-01-19T00:42:03.484Z,100129.87
2023-01-19T00:44:33.600Z,100131.37
2023-01-19T00:47:05.545Z,100142.50
2023-01-19T00:49:35.354Z,100136.44
2023-01-19T00:52:07.011Z,100133.24
2023-01-19T00:54:36.849Z,100133.24
2023-01-19T00:57:06.666Z,100133.06
2023-01-19T00:59:36.745Z,100133.40
2023-01-19T01:02:08.303Z,100127.54
2023-01-19T01:04:38.574Z,100123.95
2023-01-19T01:07:08.898Z,100117.94
2023-01-19T01:09:38.854Z,100126.68
2023-01-19T01:12:09.679Z,100131.36
2023-01-19T01:14:39.943Z,100129.20
2023-01-19T01:17:11.558Z,100136.25
2023-01-19T01:19:42.545Z,100146.20
2023-01-19T01:22:12.374Z,100158.66
2023-01-19T01:24:42.220Z,100155.13
2023-01-19T01:27:12.066Z,100148.52
2023-01-19T01:29:43.655Z,100146.02
2023-01-19T01:32:17.330Z,100144.48
2023-01-19T01:34:47.111Z,100145.84
2023-01-19T01:37:16.929Z,100142.65
2023-01-19T01:39:46.724Z,100139.64
2023-01-19T01:42:19.298Z,100138.11
2023-01-19T01:44:55.091Z,100138.31
2023-01-19T01:47:25.306Z,100136.95
2023-01-19T01:49:58.589Z,100145.03
2023-01-19T01:52:30.475Z,100139.30
2023-01-19T01:55:03.133Z,100138.63
2023-01-19T01:57:33.099Z,100128.72
2023-01-19T02:00:04.371Z,100128.36
2023-01-19T02:02:53.564Z,100125.03
2023-01-19T02:05:34.595Z,100131.76
2023-01-19T02:08:36.083Z,100123.68
2023-01-19T02:11:24.485Z,100131.07
2023-01-19T02:13:54.704Z,100132.41
2023-01-19T02:16:24.516Z,100134.11
2023-01-19T02:18:54.313Z,100130.23
2023-01-19T02:21:27.148Z,100125.36
2023-01-19T02:24:00.200Z,100133.59
2023-01-19T02:26:32.990Z,100134.96
2023-01-19T02:29:05.861Z,100138.32
2023-01-19T02:31:38.981Z,100144.02
2023-01-19T02:34:15.358Z,100143.17
2023-01-19T02:36:50.754Z,100150.41
2023-01-19T02:39:23.321Z,100143.37
2023-01-19T02:41:56.192Z,100148.73
2023-01-19T02:44:27.444Z,100150.52
2023-01-19T02:46:57.652Z,100152.55
2023-01-19T02:49:30.212Z,100157.19
2023-01-19T02:52:01.149Z,100160.68
2023-01-19T02:54:50.226Z,100167.87
2023-01-19T02:57:34.202Z,100167.27
2023-01-19T03:00:10.927Z,100167.27
2023-01-19T03:02:44.011Z,100174.55
2023-01-19T03:05:20.062Z,100180.63
2023-01-19T03:07:50.671Z,100170.12
2023-01-19T03:10:58.136Z,100173.58
2023-01-19T03:13:42.734Z,100179.86
2023-01-19T03:16:33.099Z,100180.67
2023-01-19T03:19:11.621Z,100187.72
2023-01-19T03:21:44.446Z,100193.56
2023-01-19T03:24:16.173Z,100198.34
2023-01-19T03:29:35.977Z,100198.84
2023-01-19T03:32:09.761Z,100201.83
2023-01-19T03:34:42.691Z,100208.97
2023-01-19T03:37:14.508Z,100207.67
2023-01-19T03:39:44.408Z,100207.95
2023-01-19T03:42:17.035Z,100204.25
2023-01-19T03:44:49.645Z,100222.48
2023-01-19T03:47:20.945Z,100202.37
2023-01-19T03:49:52.980Z,100215.12
2023-01-19T03:52:35.748Z,100213.63
2023-01-19T03:55:07.920Z,100234.59
2023-01-19T03:57:38.220Z,100234.59
2023-01-19T04:00:10.639Z,100238.62
2023-01-19T04:02:42.146Z,100238.50
2023-01-19T04:05:11.668Z,100227.86
2023-01-19T04:07:41.430Z,100240.75
2023-01-19T04:10:12.753Z,100248.14
2023-01-19T04:12:42.823Z,100242.98
2023-01-19T04:15:12.920Z,100239.45
2023-01-19T04:17:43.037Z,100235.70
2023-01-19T04:20:14.283Z,100225.47
2023-01-19T04:22:44.576Z,100224.24
2023-01-19T04:25:14.412Z,100224.24
2023-01-19T04:27:44.186Z,100217.95
2023-01-19T04:30:15.245Z,100226.77
2023-01-19T04:32:45.016Z,100244.73
2023-01-19T04:35:14.743Z,100244.73
2023-01-19T04:37:45.062Z,100237.65
2023-01-19T04:40:16.973Z,100225.42
2023-01-19T04:42:47.274Z,100225.42
2023-01-19T04:45:17.359Z,100226.72
2023-01-19T04:47:47.127Z,100231.77
2023-01-19T04:50:17.585Z,100225.28
2023-01-19T04:52:48.979Z,100213.33
2023-01-19T04:55:19.830Z,100212.34
2023-01-19T04:57:49.780Z,100216.15
2023-01-19T05:00:20.726Z,100210.30
2023-01-19T05:02:50.747Z,100220.58
2023-01-19T05:05:20.679Z,100226.42
2023-01-19T05:07:50.718Z,100217.81
2023-01-19T05:10:20.358Z,100229.99
2023-01-19T05:12:50.118Z,100231.64
2023-01-19T05:15:19.838Z,100231.97
2023-01-19T05:17:49.977Z,100231.97
2023-01-19T05:20:19.923Z,100235.37
2023-01-19T05:22:54.068Z,100237.75
2023-01-19T05:25:23.584Z,100242.62
2023-01-19T05:27:53.593Z,100241.98
2023-01-19T05:30:23.207Z,100246.69
2023-01-19T05:32:52.980Z,100246.69
2023-01-19T05:35:35.371Z,100257.25
2023-01-19T05:37:55.173Z,100261.92
2023-01-19T05:40:24.673Z,100268.30
2023-01-19T05:42:54.489Z,100270.55
2023-01-19T05:45:24.167Z,100267.83
2023-01-19T05:47:55.864Z,100271.53
2023-01-19T05:50:25.759Z,100272.23
2023-01-19T05:52:55.613Z,100287.42
2023-01-19T05:55:25.576Z,100297.23
2023-01-19T05:57:55.185Z,100295.47
2023-01-19T06:00:26.594Z,100297.48
2023-01-19T06:02:56.541Z,100300.98
2023-01-19T06:05:26.071Z,100302.19
2023-01-19T06:07:57.881Z,100306.93
2023-01-19T06:10:27.687Z,100306.93
2023-01-19T06:12:57.452Z,100310.66
2023-01-19T06:15:27.397Z,100304.61
2023-01-19T06:17:57.174Z,100304.55
2023-01-19T06:20:27.014Z,100307.23
2023-01-19T06:22:59.259Z,100311.60
2023-01-19T06:25:29.558Z,100314.50
2023-01-19T06:27:59.692Z,100330.22
2023-01-19T06:30:29.192Z,100323.88
2023-01-19T06:32:59.216Z,100330.34
2023-01-19T06:35:29.082Z,100329.30
2023-01-19T06:37:58.935Z,100340.14
2023-01-19T06:40:28.469Z,100343.84
2023-01-19T06:42:58.992Z,100357.78
2023-01-19T06:45:28.903Z,100357.78
2023-01-19T06:47:58.669Z,100360.64
2023-01-19T06:50:28.658Z,100360.31
2023-01-19T06:52:58.783Z,100365.35
2023-01-19T06:55:28.875Z,100368.76
2023-01-19T06:58:01.705Z,100369.84
2023-01-19T07:00:31.738Z,100380.61
2023-01-19T07:03:02.388Z,100377.67
2023-01-19T07:05:32.605Z,100385.61
2023-01-19T07:08:03.363Z,100385.95
2023-01-19T07:11:26.815Z,100396.33
2023-01-19T07:13:05.777Z,100396.33
2023-01-19T07:15:35.603Z,100394.69
2023-01-19T07:18:08.168Z,100403.84
2023-01-19T07:20:39.069Z,100400.23
2023-01-19T07:23:09.266Z,100411.06
2023-01-19T07:25:39.698Z,100413.64
2023-01-19T07:28:12.901Z,100415.53
2023-01-19T07:30:46.293Z,100419.20
2023-01-19T07:33:16.169Z,100428.36
2023-01-19T07:35:49.576Z,100434.20
2023-01-19T07:38:20.284Z,100436.38
2023-01-19T07:40:50.063Z,100431.60
2023-01-19T07:43:19.926Z,100435.94
2023-01-19T07:45:50.172Z,100437.16
2023-01-19T07:48:20.095Z,100440.64
2023-01-19T07:50:49.998Z,100454.22
2023-01-19T07:53:20.118Z,100453.25
2023-01-19T07:55:53.367Z,100459.27
2023-01-19T07:58:23.425Z,100454.80
2023-01-19T08:00:53.586Z,100469.20
2023-01-19T08:03:23.753Z,100467.44
2023-01-19T08:05:54.525Z,100468.26
2023-01-19T08:08:24.327Z,100471.28
2023-01-19T08:10:53.999Z,100474.72
2023-01-19T08:13:23.916Z,100477.02
2023-01-19T08:15:55.208Z,100480.89
2023-01-19T08:18:24.754Z,100480.55
2023-01-19T08:20:54.527Z,100484.25
2023-01-19T08:23:24.312Z,100488.12
2023-01-19T08:25:54.189Z,100485.25
2023-01-19T08:28:24.205Z,100490.25
2023-01-19T08:30:56.535Z,100495.45
2023-01-19T08:33:26.644Z,100494.11
2023-01-19T08:35:56.479Z,100502.63
2023-01-19T08:38:26.025Z,100503.64
2023-01-19T08:40:55.939Z,100506.25
2023-01-19T08:43:25.988Z,100504.66
2023-01-19T08:45:56.494Z,100512.06
2023-01-19T08:48:26.011Z,100512.94
2023-01-19T08:50:55.860Z,100522.63
2023-01-19T08:53:26.033Z,100513.98
2023-01-19T08:55:59.511Z,100518.22
2023-01-19T08:58:29.412Z,100513.73
2023-01-19T09:01:03.043Z,100519.34
2023-01-19T09:03:32.688Z,100526.74
2023-01-19T09:06:03.081Z,100516.66
2023-01-19T09:08:32.926Z,100526.78
2023-01-19T09:11:02.966Z,100526.61
2023-01-19T09:13:32.885Z,100528.45
2023-01-19T09:16:04.840Z,100535.69
2023-01-19T09:18:35.846Z,100539.94
2023-01-19T09:21:05.804Z,100548.33
2023-01-19T09:23:35.607Z,100554.56
2023-01-19T09:26:07.438Z,100564.66
2023-01-19T09:28:38.104Z,100560.23
2023-01-19T09:31:09.636Z,100565.53
2023-01-19T09:33:39.634Z,100572.50
2023-01-19T09:36:11.263Z,100572.50
2023-01-19T09:38:41.390Z,100576.80
2023-01-19T09:41:16.748Z,100577.83
2023-01-19T09:43:49.241Z,100570.03
2023-01-19T09:46:24.548Z,100569.46
2023-01-19T09:48:57.704Z,100574.34
2023-01-19T09:51:30.082Z,100575.19
2023-01-19T09:54:22.444Z,100583.28
2023-01-19T09:56:53.873Z,100588.02
2023-01-19T09:59:29.047Z,100596.95
2023-01-19T10:02:22.219Z,100593.23
2023-01-19T10:05:02.977Z,100602.35
2023-01-19T10:07:44.760Z,100603.17
2023-01-19T10:10:28.042Z,100609.09
2023-01-19T10:13:17.748Z,100611.77
2023-01-19T10:15:53.147Z,100607.23
2023-01-19T10:18:29.154Z,100615.16
2023-01-19T10:21:13.610Z,100615.84
2023-01-19T10:23:58.214Z,100611.25
2023-01-19T10:26:32.339Z,100612.45
2023-01-19T10:29:21.246Z,100620.06
2023-01-19T10:31:53.745Z,100615.99
2023-01-19T10:34:24.033Z,100618.84
2023-01-19T10:36:56.900Z,100624.41
2023-01-19T10:39:26.830Z,100622.56
2023-01-19T10:41:58.529Z,100621.91
2023-01-19T10:44:31.672Z,100618.70
2023-01-19T10:47:02.401Z,100621.52
2023-01-19T10:49:38.332Z,100623.17
2023-01-19T10:52:09.578Z,100615.16
2023-01-19T10:54:39.127Z,100623.90
2023-01-19T10:57:12.442Z,100615.83
2023-01-19T10:59:51.285Z,100630.02
2023-01-19T11:02:29.074Z,100628.47
2023-01-19T11:05:04.951Z,100623.37
2023-01-19T11:07:35.861Z,100627.21
2023-01-19T11:10:20.793Z,100626.92
2023-01-19T11:13:10.104Z,100623.16
2023-01-19T11:15:45.866Z,100629.27
2023-01-19T11:18:25.167Z,100628.05
2023-01-19T11:20:58.209Z,100628.96
2023-01-19T11:23:35.875Z,100629.83
2023-01-19T11:28:51.635Z,100629.23
2023-01-19T11:31:31.429Z,100635.00
2023-01-19T11:34:06.553Z,100633.33
2023-01-19T11:36:37.759Z,100633.42
2023-01-19T11:39:28.416Z,100635.36
2023-01-19T11:42:03.552Z,100636.69
2023-01-19T11:44:39.005Z,100628.94
2023-01-19T11:47:17.280Z,100622.81
2023-01-19T11:50:01.743Z,100622.81
2023-01-19T11:52:46.356Z,100626.73
2023-01-19T11:55:24.981Z,100621.26
2023-01-19T11:57:55.509Z,100619.22
2023-01-19T12:00:31.154Z,100627.36
2023-01-19T12:03:03.729Z,100627.36
2023-01-19T12:05:36.014Z,100628.06
2023-01-19T12:08:09.223Z,100618.59
2023-01-19T12:10:43.505Z,100616.56
2023-01-19T12:13:22.785Z,100609.87
2023-01-19T12:15:58.346Z,100625.08
2023-01-19T12:18:31.184Z,100611.89
2023-01-19T12:21:03.830Z,100619.55
2023-01-19T12:23:58.476Z,100615.81
2023-01-19T12:26:33.818Z,100623.95
2023-01-19T12:29:09.284Z,100617.19
2023-01-19T12:31:40.713Z,100618.94
2023-01-19T12:34:29.709Z,100617.58
2023-01-19T12:37:05.313Z,100618.75
2023-01-19T12:39:35.813Z,100623.30
2023-01-19T12:42:18.508Z,100622.87
2023-01-19T12:44:49.530Z,100622.11
2023-01-19T12:47:21.068Z,100622.11
2023-01-19T12:49:54.502Z,100627.53
2023-01-19T12:52:33.972Z,100619.95
2023-01-19T12:55:19.173Z,100629.70
2023-01-19T12:58:09.794Z,100624.73
2023-01-19T13:00:44.557Z,100630.51
2023-01-19T13:03:29.546Z,100626.87
2023-01-19T13:05:59.857Z,100629.63
2023-01-19T13:08:48.708Z,100626.26
2023-01-19T13:11:20.034Z,100625.95
2023-01-19T13:13:52.871Z,100622.97
2023-01-19T13:16:27.421Z,100628.98
2023-01-19T13:19:05.186Z,100622.66
2023-01-19T13:21:39.429Z,100630.86
2023-01-19T13:24:11.813Z,100634.06
2023-01-19T13:26:53.590Z,100628.73
2023-01-19T13:29:38.356Z,100626.85
2023-01-19T13:32:19.278Z,100623.89
2023-01-19T13:34:59.322Z,100632.50
2023-01-19T13:37:32.216Z,100630.28
2023-01-19T13:40:03.096Z,100632.85
2023-01-19T13:42:36.397Z,100629.27
2023-01-19T13:45:34.524Z,100626.86
2023-01-19T13:48:09.962Z,100632.45
2023-01-19T13:50:39.515Z,100631.45
2023-01-19T13:53:21.095Z,100636.31
2023-01-19T13:56:08.073Z,100641.33
2023-01-19T13:58:36.804Z,100640.13
2023-01-19T14:01:06.247Z,100638.81
2023-01-19T14:03:36.177Z,100645.48
2023-01-19T14:06:07.210Z,100656.17
2023-01-19T14:08:37.413Z,100649.25
2023-01-19T14:11:07.547Z,100649.14
2023-01-19T14:13:39.496Z,100652.28
2023-01-19T14:16:18.500Z,100652.55
2023-01-19T14:18:49.809Z,100654.37
2023-01-19T14:21:19.661Z,100653.05
2023-01-19T14:24:08.681Z,100656.34
2023-01-19T14:26:52.685Z,100652.26
2023-01-19T14:29:32.945Z,100655.61
2023-01-19T14:32:06.073Z,100658.88
2023-01-19T14:34:44.708Z,100667.69
2023-01-19T14:37:20.370Z,100661.50
2023-01-19T14:39:58.750Z,100664.47
2023-01-19T14:42:31.578Z,100663.22
2023-01-19T14:45:03.887Z,100665.05
2023-01-19T14:47:39.203Z,100669.76
2023-01-19T14:50:26.851Z,100668.41
2023-01-19T14:53:24.952Z,100674.13
2023-01-19T14:55:57.413Z,100673.38
2023-01-19T14:58:29.989Z,100681.97
2023-01-19T15:01:00.013Z,100683.55
2023-01-19T15:03:44.322Z,100680.88
2023-01-19T15:06:04.461Z,100687.83
2023-01-19T15:08:37.624Z,100688.65
2023-01-19T15:11:22.748Z,100690.05
2023-01-19T15:13:53.107Z,100688.06
2023-01-19T15:16:27.195Z,100691.59
2023-01-19T15:18:57.415Z,100694.64
2023-01-19T15:21:27.417Z,100701.73
2023-01-19T15:23:58.457Z,100705.27
2023-01-19T15:26:28.385Z,100714.23
2023-01-19T15:28:58.220Z,100714.38
2023-01-19T15:31:28.317Z,100710.67
2023-01-19T15:33:58.124Z,100714.75
2023-01-19T15:36:28.273Z,100713.88
2023-01-19T15:38:58.362Z,100726.17
2023-01-19T15:41:32.626Z,100721.45
2023-01-19T15:44:03.587Z,100706.92
2023-01-19T15:46:33.952Z,100724.83
2023-01-19T15:49:05.620Z,100716.36
2023-01-19T15:51:35.754Z,100715.55
2023-01-19T15:54:05.645Z,100713.69
2023-01-19T15:56:35.425Z,100709.31
2023-01-19T15:59:05.250Z,100714.87
2023-01-19T16:01:36.224Z,100717.25
2023-01-19T16:04:09.519Z,100723.78
2023-01-19T16:06:39.202Z,100728.15
2023-01-19T16:09:09.057Z,100725.42
2023-01-19T16:11:38.965Z,100726.61
2023-01-19T16:14:10.455Z,100724.05
2023-01-19T16:16:42.352Z,100739.69
2023-01-19T16:19:15.899Z,100739.69
2023-01-19T16:21:45.741Z,100744.80
2023-01-19T16:24:15.821Z,100744.80
2023-01-19T16:26:45.674Z,100748.50
2023-01-19T16:29:15.717Z,100745.03
2023-01-19T16:31:46.230Z,100756.98
2023-01-19T16:34:18.155Z,100762.37
2023-01-19T16:36:47.932Z,100766.99
2023-01-19T16:39:18.736Z,100770.13
2023-01-19T16:41:48.612Z,100767.84
2023-01-19T16:44:19.040Z,100769.89
2023-01-19T16:46:51.817Z,100783.02
2023-01-19T16:49:24.216Z,100785.61
2023-01-19T16:51:58.336Z,100784.36
2023-01-19T16:54:30.020Z,100786.22
2023-01-19T16:57:00.132Z,100797.69
2023-01-19T16:59:30.354Z,100794.92
2023-01-19T17:02:00.349Z,100795.50
2023-01-19T17:04:29.932Z,100799.12
2023-01-19T17:06:59.694Z,100796.41
2023-01-19T17:09:29.808Z,100801.70
2023-01-19T17:12:00.153Z,100806.44
2023-01-19T17:14:30.078Z,100803.73
2023-01-19T17:17:02.682Z,100805.25
2023-01-19T17:19:32.562Z,100813.66
2023-01-19T17:22:02.406Z,100818.02
2023-01-19T17:24:32.360Z,100819.87
2023-01-19T17:27:02.241Z,100825.25
2023-01-19T17:29:31.999Z,100833.24
2023-01-19T17:32:02.120Z,100824.08
2023-01-19T17:34:31.966Z,100831.71
2023-01-19T17:37:03.371Z,100832.46
2023-01-19T17:39:33.646Z,100839.34
2023-01-19T17:42:03.470Z,100834.41
2023-01-19T17:44:33.213Z,100840.37
2023-01-19T17:47:03.117Z,100836.44
2023-01-19T17:49:33.001Z,100839.22
2023-01-19T17:52:02.761Z,100835.34
2023-01-19T17:54:32.692Z,100837.59
2023-01-19T17:57:02.483Z,100834.30
2023-01-19T17:59:32.596Z,100844.33
2023-01-19T18:02:02.706Z,100834.67
2023-01-19T18:04:32.398Z,100833.20
2023-01-19T18:07:02.199Z,100834.76
2023-01-19T18:09:32.131Z,100839.09
2023-01-19T18:12:01.909Z,100846.17
2023-01-19T18:14:31.428Z,100843.87
2023-01-19T18:17:01.295Z,100843.19
2023-01-19T18:19:31.201Z,100843.84
2023-01-19T18:22:01.115Z,100846.75
2023-01-19T18:24:30.832Z,100853.76
2023-01-19T18:27:00.637Z,100844.45
2023-01-19T18:29:30.734Z,100848.38
2023-01-19T18:32:00.481Z,100850.72
2023-01-19T18:34:30.650Z,100854.17
2023-01-19T18:37:00.476Z,100856.97
2023-01-19T18:39:32.993Z,100862.34
2023-01-19T18:42:02.841Z,100865.00
2023-01-19T18:44:32.914Z,100865.13
2023-01-19T18:47:02.815Z,100872.09
2023-01-19T18:49:33.045Z,100869.44
2023-01-19T18:52:03.961Z,100877.74
2023-01-19T18:54:34.042Z,100876.12
2023-01-19T18:57:03.843Z,100875.77
2023-01-19T18:59:33.948Z,100874.78
2023-01-19T19:02:05.463Z,100866.89
2023-01-19T19:04:35.497Z,100869.84
2023-01-19T19:07:05.392Z,100870.84
2023-01-19T19:09:36.052Z,100876.57
2023-01-19T19:12:06.058Z,100872.77
2023-01-19T19:14:36.185Z,100869.76
2023-01-19T19:17:06.047Z,100873.04
2023-01-19T19:19:36.131Z,100880.32
2023-01-19T19:22:06.116Z,100879.59
2023-01-19T19:24:36.168Z,100884.33
2023-01-19T19:27:06.281Z,100891.44
2023-01-19T19:29:36.384Z,100891.55
2023-01-19T19:32:06.365Z,100897.20
2023-01-19T19:34:36.410Z,100901.25
2023-01-19T19:37:06.232Z,100900.42
2023-01-19T19:39:38.244Z,100894.00
2023-01-19T19:42:08.561Z,100894.90
2023-01-19T19:44:38.648Z,100896.23
2023-01-19T19:47:08.615Z,100903.03
2023-01-19T19:49:39.050Z,100903.75
2023-01-19T19:52:08.828Z,100897.85
2023-01-19T19:54:39.121Z,100901.31
2023-01-19T19:57:08.919Z,100906.58
2023-01-19T19:59:39.154Z,100906.96
2023-01-19T20:02:12.730Z,100916.37
2023-01-19T20:04:44.212Z,100914.20
2023-01-19T20:07:14.022Z,100914.83
2023-01-19T20:09:45.232Z,100914.83
2023-01-19T20:12:15.947Z,100929.67
2023-01-19T20:14:45.718Z,100936.95
2023-01-19T20:17:15.492Z,100946.63
2023-01-19T20:19:47.177Z,100950.67
2023-01-19T20:22:18.589Z,100953.65
2023-01-19T20:24:48.590Z,100953.59
2023-01-19T20:27:18.969Z,100962.14
2023-01-19T20:29:54.434Z,100955.98
2023-01-19T20:32:25.137Z,100955.98
2023-01-19T20:34:55.005Z,100978.75
2023-01-19T20:37:24.815Z,100982.72
2023-01-19T20:39:54.743Z,100984.19
2023-01-19T20:42:24.560Z,100982.02
2023-01-19T20:44:55.605Z,100983.70
2023-01-19T20:47:25.879Z,100988.56
2023-01-19T20:49:55.672Z,100997.47
2023-01-19T20:52:25.460Z,100997.44
2023-01-19T20:54:55.393Z,101005.55
2023-01-19T20:57:25.335Z,101001.52
2023-01-19T20:59:55.104Z,101004.38
2023-01-19T21:02:28.414Z,101013.48
2023-01-19T21:04:57.566Z,101009.78
2023-01-19T21:07:27.538Z,101021.17
2023-01-19T21:09:57.470Z,101017.48
2023-01-19T21:12:27.232Z,101016.39
2023-01-19T21:14:57.027Z,101019.89
2023-01-19T21:17:26.870Z,101022.11
2023-01-19T21:19:56.697Z,101025.89
2023-01-19T21:22:26.536Z,101030.78
2023-01-19T21:24:56.375Z,101029.44
2023-01-19T21:27:26.189Z,101026.72
2023-01-19T21:29:55.951Z,101040.52
2023-01-19T21:32:25.854Z,101036.16
2023-01-19T21:34:55.973Z,101041.56
2023-01-19T21:37:26.199Z,101044.75
2023-01-19T21:39:55.957Z,101049.24
2023-01-19T21:42:25.562Z,101044.41
2023-01-19T21:44:55.345Z,101049.81
2023-01-19T21:47:25.122Z,101053.22
2023-01-19T21:49:54.891Z,101057.94
2023-01-19T21:52:24.744Z,101059.51
2023-01-19T21:54:54.589Z,101061.42
2023-01-19T21:57:24.414Z,101061.34
2023-01-19T21:59:54.168Z,101067.48
2023-01-19T22:02:37.883Z,101069.73
2023-01-19T22:04:55.486Z,101070.92
2023-01-19T22:07:25.384Z,101073.01
2023-01-19T22:09:55.140Z,101077.55
2023-01-19T22:12:25.001Z,101082.48
2023-01-19T22:14:55.222Z,101083.41
2023-01-19T22:17:25.087Z,101087.73
2023-01-19T22:19:55.231Z,101083.27
2023-01-19T22:22:24.729Z,101086.89
2023-01-19T22:24:54.550Z,101090.25
2023-01-19T22:27:24.702Z,101083.20
2023-01-19T22:29:54.563Z,101088.45
2023-01-19T22:32:24.419Z,101096.61
2023-01-19T22:34:54.188Z,101100.22
2023-01-19T22:37:24.019Z,101093.91
2023-01-19T22:39:54.523Z,101089.94
2023-01-19T22:42:24.285Z,101088.59
2023-01-19T22:44:54.064Z,101094.25
2023-01-19T22:47:23.864Z,101089.16
2023-01-19T22:49:53.597Z,101101.06
2023-01-19T22:52:23.534Z,101090.71
2023-01-19T22:54:55.928Z,101090.71
2023-01-19T22:57:25.916Z,101095.92
2023-01-19T22:59:55.679Z,101099.50
2023-01-19T23:02:25.420Z,101096.48
2023-01-19T23:04:55.185Z,101104.32
2023-01-19T23:07:25.013Z,101098.53
2023-01-19T23:09:54.847Z,101106.95
2023-01-19T23:12:24.390Z,101103.56
2023-01-19T23:14:54.168Z,101102.47
2023-01-19T23:17:23.968Z,101101.58
2023-01-19T23:19:54.032Z,101103.62
2023-01-19T23:22:23.478Z,101094.41
2023-01-19T23:24:53.262Z,101093.84
2023-01-19T23:27:23.084Z,101095.53
2023-01-19T23:29:54.328Z,101095.84
2023-01-19T23:32:24.270Z,101107.31
2023-01-19T23:34:54.311Z,101111.05
2023-01-19T23:37:24.165Z,101108.55
2023-01-19T23:39:54.324Z,101110.29
2023-01-19T23:42:24.183Z,101118.21
2023-01-19T23:44:54.008Z,101120.61
2023-01-19T23:47:24.165Z,101123.50
2023-01-19T23:49:53.980Z,101126.13
2023-01-19T23:52:24.166Z,101129.46
2023-01-19T23:54:53.991Z,101128.87
2023-01-19T23:57:23.741Z,101117.77
2023-01-19T23:59:53.539Z,101128.11
